createdAt,value
2022-09-14T00:02:52.468Z,23.32
2022-09-14T00:07:55.460Z,23.28
2022-09-14T00:13:00.509Z,23.27
2022-09-14T00:18:03.264Z,23.25
2022-09-14T00:23:05.993Z,23.24
2022-09-14T00:28:10.125Z,23.22
2022-09-14T00:33:13.407Z,23.19
2022-09-14T00:38:16.172Z,23.17
2022-09-14T00:43:20.272Z,23.15
2022-09-14T00:48:24.589Z,23.14
2022-09-14T00:53:27.362Z,23.13
2022-09-14T00:58:31.421Z,23.13
2022-09-14T01:03:34.208Z,23.12
2022-09-14T01:08:47.080Z,23.13
2022-09-14T01:13:56.072Z,23.09
2022-09-14T01:19:00.142Z,23.10
2022-09-14T01:24:06.069Z,23.09
2022-09-14T01:29:13.417Z,23.11
2022-09-14T01:34:17.913Z,23.09
2022-09-14T01:39:20.771Z,23.09
2022-09-14T01:44:26.592Z,23.08
2022-09-14T01:49:32.228Z,23.07
2022-09-14T01:54:36.141Z,23.06
2022-09-14T01:59:42.499Z,23.07
2022-09-14T02:04:47.722Z,23.07
2022-09-14T02:09:50.555Z,23.07
2022-09-14T02:14:54.822Z,23.05
2022-09-14T02:19:58.109Z,23.05
2022-09-14T02:25:00.876Z,23.05
2022-09-14T02:30:05.682Z,23.02
2022-09-14T02:35:11.825Z,23.02
2022-09-14T02:40:19.212Z,23.00
2022-09-14T02:45:26.818Z,23.00
2022-09-14T02:50:31.206Z,22.98
2022-09-14T02:55:35.989Z,22.96
2022-09-14T03:00:41.899Z,22.95
2022-09-14T03:05:44.823Z,22.96
2022-09-14T03:10:47.745Z,22.94
2022-09-14T03:15:52.074Z,22.94
2022-09-14T03:20:54.873Z,22.93
2022-09-14T03:25:57.631Z,22.90
2022-09-14T03:31:03.098Z,22.92
2022-09-14T03:36:11.257Z,22.82
2022-09-14T03:41:14.454Z,22.84
2022-09-14T03:46:20.609Z,22.81
2022-09-14T03:51:23.539Z,22.83
2022-09-14T03:56:26.308Z,22.84
2022-09-14T04:01:30.390Z,22.78
2022-09-14T04:06:33.600Z,22.79
2022-09-14T04:11:36.299Z,22.76
2022-09-14T04:16:40.324Z,22.75
2022-09-14T04:21:42.991Z,22.72
2022-09-14T04:26:45.752Z,22.71
2022-09-14T04:31:49.849Z,22.65
2022-09-14T04:36:52.527Z,22.64
2022-09-14T04:41:55.320Z,22.62
2022-09-14T04:46:59.551Z,22.60
2022-09-14T04:52:02.607Z,22.59
2022-09-14T04:57:05.603Z,22.56
2022-09-14T05:02:09.647Z,22.56
2022-09-14T05:07:12.354Z,22.53
2022-09-14T05:12:15.062Z,22.52
2022-09-14T05:17:19.090Z,22.52
2022-09-14T05:22:22.693Z,22.48
2022-09-14T05:27:25.347Z,22.50
2022-09-14T05:32:29.314Z,22.51
2022-09-14T05:37:32.052Z,22.48
2022-09-14T05:42:34.670Z,22.47
2022-09-14T05:47:39.349Z,22.47
2022-09-14T05:52:42.139Z,22.45
2022-09-14T05:57:44.825Z,22.45
2022-09-14T06:02:49.242Z,22.47
2022-09-14T06:07:52.363Z,22.45
2022-09-14T06:12:55.632Z,22.44
2022-09-14T06:17:59.737Z,22.45
2022-09-14T06:23:02.368Z,22.44
2022-09-14T06:28:05.099Z,22.48
2022-09-14T06:33:09.030Z,22.44
2022-09-14T06:38:11.739Z,22.47
2022-09-14T06:43:14.379Z,22.44
2022-09-14T06:48:18.397Z,22.45
2022-09-14T06:53:21.102Z,22.41
2022-09-14T06:58:23.724Z,22.43
2022-09-14T07:03:27.856Z,22.43
2022-09-14T07:08:30.568Z,22.44
2022-09-14T07:13:33.394Z,22.44
2022-09-14T07:18:37.481Z,22.44
2022-09-14T07:23:41.130Z,22.46
2022-09-14T07:28:44.278Z,22.44
2022-09-14T07:33:48.494Z,22.46
2022-09-14T07:39:01.290Z,22.45
2022-09-14T07:44:05.378Z,22.46
2022-09-14T07:49:09.639Z,22.46
2022-09-14T07:54:13.548Z,22.48
2022-09-14T07:59:35.925Z,22.47
2022-09-14T08:04:40.392Z,22.48
2022-09-14T08:09:43.097Z,22.47
2022-09-14T08:14:45.746Z,22.46
2022-09-14T08:19:49.715Z,22.47
2022-09-14T08:24:52.468Z,22.48
2022-09-14T08:29:55.382Z,22.49
2022-09-14T08:34:59.434Z,22.52
2022-09-14T08:40:02.478Z,22.28
2022-09-14T08:45:09.585Z,22.16
2022-09-14T08:50:17.179Z,22.00
2022-09-14T08:55:25.530Z,21.85
2022-09-14T09:05:37.725Z,21.72
2022-09-14T09:10:40.377Z,21.76
2022-09-14T09:15:46.112Z,21.70
2022-09-14T09:20:52.331Z,21.67
2022-09-14T09:25:58.829Z,21.62
2022-09-14T09:31:04.774Z,21.68
2022-09-14T09:36:28.765Z,21.60
2022-09-14T09:41:32.518Z,21.54
2022-09-14T09:46:35.803Z,21.55
2022-09-14T09:51:39.937Z,21.46
2022-09-14T09:56:51.909Z,21.51
2022-09-14T10:01:56.337Z,21.46
2022-09-14T10:07:00.572Z,21.37
2022-09-14T10:12:04.069Z,21.46
2022-09-14T10:17:08.133Z,21.47
2022-09-14T10:22:24.300Z,21.39
2022-09-14T10:27:50.532Z,21.35
2022-09-14T10:32:56.594Z,21.43
2022-09-14T10:38:17.328Z,21.33
2022-09-14T10:43:23.171Z,21.33
2022-09-14T10:48:44.619Z,21.30
2022-09-14T10:53:52.829Z,21.29
2022-09-14T10:59:07.187Z,21.22
2022-09-14T11:04:20.023Z,21.14
2022-09-14T11:09:25.599Z,21.22
2022-09-14T11:14:38.662Z,21.41
2022-09-14T11:19:45.275Z,21.54
2022-09-14T11:24:51.204Z,21.60
2022-09-14T11:29:54.904Z,21.67
2022-09-14T11:35:00.091Z,21.73
2022-09-14T11:40:19.300Z,21.78
2022-09-14T11:45:24.829Z,21.81
2022-09-14T11:50:28.597Z,21.84
2022-09-14T11:55:32.586Z,21.89
2022-09-14T12:00:47.246Z,21.92
2022-09-14T12:05:50.172Z,21.96
2022-09-14T12:11:22.198Z,22.01
2022-09-14T12:16:24.997Z,22.04
2022-09-14T12:21:27.723Z,22.10
2022-09-14T12:26:35.044Z,22.17
2022-09-14T12:32:02.216Z,22.20
2022-09-14T12:37:29.554Z,22.23
2022-09-14T12:42:33.621Z,22.29
2022-09-14T12:47:54.627Z,22.29
2022-09-14T12:53:06.923Z,22.34
2022-09-14T12:58:18.550Z,22.27
2022-09-14T13:03:28.747Z,22.28
2022-09-14T13:08:31.491Z,22.29
2022-09-14T13:13:35.751Z,22.25
2022-09-14T13:18:38.901Z,22.32
2022-09-14T13:23:42.738Z,22.32
2022-09-14T13:28:47.613Z,22.34
2022-09-14T13:33:51.284Z,22.33
2022-09-14T13:38:54.224Z,22.32
2022-09-14T13:43:58.630Z,22.32
2022-09-14T13:49:01.316Z,22.33
2022-09-14T13:54:17.752Z,22.33
2022-09-14T13:59:22.511Z,22.34
2022-09-14T14:04:30.724Z,22.33
2022-09-14T14:09:45.086Z,22.34
2022-09-14T14:14:57.953Z,22.33
2022-09-14T14:20:01.427Z,22.33
2022-09-14T14:25:18.873Z,22.32
2022-09-14T14:30:23.236Z,22.33
2022-09-14T14:35:27.081Z,22.30
2022-09-14T14:40:30.142Z,22.30
2022-09-14T14:45:36.548Z,22.31
2022-09-14T14:50:39.537Z,22.31
2022-09-14T14:55:42.241Z,22.29
2022-09-14T15:00:47.607Z,22.27
2022-09-14T15:05:50.508Z,22.29
2022-09-14T15:10:56.703Z,22.32
2022-09-14T15:16:00.729Z,22.25
2022-09-14T15:21:03.432Z,22.29
2022-09-14T15:26:06.087Z,22.29
2022-09-14T15:31:10.087Z,22.30
2022-09-14T15:36:12.855Z,22.30
2022-09-14T15:41:15.636Z,22.29
2022-09-14T15:46:19.617Z,22.28
2022-09-14T15:51:22.310Z,22.28
2022-09-14T15:56:25.006Z,22.27
2022-09-14T16:01:29.169Z,22.28
2022-09-14T16:06:31.963Z,22.24
2022-09-14T16:11:34.752Z,22.27
2022-09-14T16:16:39.512Z,22.26
2022-09-14T16:21:42.783Z,22.31
2022-09-14T16:26:45.641Z,22.27
2022-09-14T16:31:49.929Z,22.27
2022-09-14T16:36:52.866Z,22.27
2022-09-14T16:41:55.797Z,22.21
2022-09-14T16:46:59.977Z,22.26
2022-09-14T16:52:03.182Z,22.25
2022-09-14T16:57:05.928Z,22.29
2022-09-14T17:02:11.299Z,22.37
2022-09-14T17:07:13.930Z,22.45
2022-09-14T17:12:16.635Z,22.51
2022-09-14T17:17:20.902Z,22.57
2022-09-14T17:22:23.577Z,22.60
2022-09-14T17:27:26.327Z,22.65
2022-09-14T17:32:30.405Z,22.71
2022-09-14T17:37:33.198Z,22.73
2022-09-14T17:42:36.119Z,22.75
2022-09-14T17:47:40.173Z,22.79
2022-09-14T17:52:43.116Z,22.82
2022-09-14T17:57:46.050Z,22.85
2022-09-14T18:02:52.644Z,22.89
2022-09-14T18:07:55.672Z,22.91
2022-09-14T18:12:58.811Z,22.93
2022-09-14T18:18:03.186Z,22.99
2022-09-14T18:23:05.799Z,23.03
2022-09-14T18:28:08.430Z,23.05
2022-09-14T18:33:12.437Z,23.05
2022-09-14T18:38:15.219Z,23.11
2022-09-14T18:43:17.947Z,23.13
2022-09-14T18:48:21.931Z,23.17
2022-09-14T18:53:24.701Z,23.20
2022-09-14T18:58:27.709Z,23.22
2022-09-14T19:03:31.970Z,23.28
2022-09-14T19:08:34.776Z,23.31
2022-09-14T19:13:37.412Z,23.36
2022-09-14T19:18:41.697Z,23.38
2022-09-14T19:23:44.443Z,23.43
2022-09-14T19:28:47.243Z,23.40
2022-09-14T19:33:51.818Z,23.46
2022-09-14T19:38:55.204Z,23.45
2022-09-14T19:43:57.978Z,23.50
2022-09-14T19:49:02.339Z,23.54
2022-09-14T19:54:05.296Z,23.53
2022-09-14T19:59:08.313Z,23.57
2022-09-14T20:04:12.442Z,23.61
2022-09-14T20:09:16.486Z,23.61
2022-09-14T20:14:21.395Z,23.65
2022-09-14T20:19:26.769Z,23.65
2022-09-14T20:24:31.586Z,23.65
2022-09-14T20:29:35.329Z,23.65
2022-09-14T20:34:39.465Z,23.62
2022-09-14T20:39:42.195Z,23.58
2022-09-14T20:44:45.074Z,23.52
2022-09-14T20:49:49.621Z,23.50
2022-09-14T20:54:52.417Z,23.42
2022-09-14T20:59:55.160Z,23.36
2022-09-14T21:04:59.967Z,23.29
2022-09-14T21:10:02.692Z,23.26
2022-09-14T21:15:06.007Z,23.21
2022-09-14T21:20:10.439Z,23.17
2022-09-14T21:25:13.289Z,23.15
2022-09-14T21:30:16.147Z,23.09
2022-09-14T21:35:20.267Z,23.05
2022-09-14T21:40:23.409Z,23.01
2022-09-14T21:45:26.307Z,22.99
2022-09-14T21:50:30.306Z,22.97
2022-09-14T21:55:33.019Z,22.95
2022-09-14T22:00:35.903Z,22.95
2022-09-14T22:05:40.089Z,22.92
2022-09-14T22:10:42.760Z,22.92
2022-09-14T22:15:45.442Z,22.91
2022-09-14T22:20:57.653Z,22.87
2022-09-14T22:26:00.881Z,22.89
2022-09-14T22:31:03.580Z,22.87
2022-09-14T22:36:08.211Z,22.88
2022-09-14T22:41:11.607Z,22.89
2022-09-14T22:46:14.586Z,22.87
2022-09-14T22:51:19.497Z,22.88
2022-09-14T22:56:23.749Z,22.85
2022-09-14T23:01:27.604Z,22.88
2022-09-14T23:06:32.731Z,22.87
2022-09-14T23:11:35.424Z,22.85
2022-09-14T23:16:38.181Z,22.85
2022-09-14T23:21:42.243Z,22.86
2022-09-14T23:26:44.944Z,22.84
2022-09-14T23:31:47.617Z,22.83
2022-09-14T23:36:51.680Z,22.83
2022-09-14T23:41:54.337Z,22.83
2022-09-14T23:46:57.117Z,22.82
2022-09-14T23:52:01.322Z,22.83
2022-09-14T23:57:04.206Z,22.79
